sensor_id;sensor_type;location;lat;lon;timestamp;P1;durP1;ratioP1;P2;durP2;ratioP2
12474;SDS011;6302;42.624;23.334;2024-02-15T00:01:48;10.77;;;7.47;;
12474;SDS011;6302;42.624;23.334;2024-02-15T00:04:16;8.67;;;7.53;;
12474;SDS011;6302;42.624;23.334;2024-02-15T00:06:44;9.60;;;8.70;;
12474;SDS011;6302;42.624;23.334;2024-02-15T00:09:10;9.00;;;8.10;;
12474;SDS011;6302;42.624;23.334;2024-02-15T00:11:37;10.47;;;8.50;;
12474;SDS011;6302;42.624;23.334;2024-02-15T00:14:04;8.47;;;7.67;;
12474;SDS011;6302;42.624;23.334;2024-02-15T00:16:32;9.73;;;8.80;;
12474;SDS011;6302;42.624;23.334;2024-02-15T00:19:00;8.83;;;8.03;;
12474;SDS011;6302;42.624;23.334;2024-02-15T00:21:28;10.47;;;7.67;;
12474;SDS011;6302;42.624;23.334;2024-02-15T00:23:55;9.13;;;8.03;;
12474;SDS011;6302;42.624;23.334;2024-02-15T00:26:22;8.93;;;8.03;;
12474;SDS011;6302;42.624;23.334;2024-02-15T00:28:48;9.23;;;8.33;;
12474;SDS011;6302;42.624;23.334;2024-02-15T00:31:15;8.33;;;7.50;;
12474;SDS011;6302;42.624;23.334;2024-02-15T00:33:42;8.20;;;7.40;;
12474;SDS011;6302;42.624;23.334;2024-02-15T00:36:09;10.30;;;7.67;;
12474;SDS011;6302;42.624;23.334;2024-02-15T00:38:37;9.60;;;7.80;;
12474;SDS011;6302;42.624;23.334;2024-02-15T00:41:04;7.57;;;6.77;;
12474;SDS011;6302;42.624;23.334;2024-02-15T00:43:34;7.27;;;6.53;;
12474;SDS011;6302;42.624;23.334;2024-02-15T00:46:00;8.63;;;7.53;;
12474;SDS011;6302;42.624;23.334;2024-02-15T00:48:27;8.90;;;8.00;;
12474;SDS011;6302;42.624;23.334;2024-02-15T00:50:55;8.77;;;7.97;;
12474;SDS011;6302;42.624;23.334;2024-02-15T00:53:21;11.13;;;7.87;;
12474;SDS011;6302;42.624;23.334;2024-02-15T00:55:49;9.03;;;7.37;;
12474;SDS011;6302;42.624;23.334;2024-02-15T00:58:16;8.27;;;7.47;;
12474;SDS011;6302;42.624;23.334;2024-02-15T01:00:43;7.97;;;7.17;;
12474;SDS011;6302;42.624;23.334;2024-02-15T01:03:09;8.90;;;7.50;;
12474;SDS011;6302;42.624;23.334;2024-02-15T01:05:36;8.67;;;7.77;;
12474;SDS011;6302;42.624;23.334;2024-02-15T01:08:03;12.70;;;8.57;;
12474;SDS011;6302;42.624;23.334;2024-02-15T01:10:30;9.93;;;7.10;;
12474;SDS011;6302;42.624;23.334;2024-02-15T01:13:00;10.50;;;7.83;;
12474;SDS011;6302;42.624;23.334;2024-02-15T01:15:27;8.67;;;7.87;;
12474;SDS011;6302;42.624;23.334;2024-02-15T01:17:54;9.13;;;8.20;;
12474;SDS011;6302;42.624;23.334;2024-02-15T01:20:21;11.53;;;8.10;;
12474;SDS011;6302;42.624;23.334;2024-02-15T01:22:48;8.27;;;7.47;;
12474;SDS011;6302;42.624;23.334;2024-02-15T01:25:15;8.20;;;7.40;;
12474;SDS011;6302;42.624;23.334;2024-02-15T01:27:45;8.17;;;7.37;;
12474;SDS011;6302;42.624;23.334;2024-02-15T01:30:14;8.17;;;7.37;;
12474;SDS011;6302;42.624;23.334;2024-02-15T01:32:41;8.00;;;7.20;;
12474;SDS011;6302;42.624;23.334;2024-02-15T01:35:08;8.00;;;6.93;;
12474;SDS011;6302;42.624;23.334;2024-02-15T01:37:35;8.93;;;8.03;;
12474;SDS011;6302;42.624;23.334;2024-02-15T01:40:03;8.70;;;7.23;;
12474;SDS011;6302;42.624;23.334;2024-02-15T01:42:31;8.80;;;7.90;;
12474;SDS011;6302;42.624;23.334;2024-02-15T01:44:58;7.90;;;7.10;;
12474;SDS011;6302;42.624;23.334;2024-02-15T01:47:26;8.70;;;7.80;;
12474;SDS011;6302;42.624;23.334;2024-02-15T01:49:54;9.60;;;7.17;;
12474;SDS011;6302;42.624;23.334;2024-02-15T01:52:21;8.67;;;7.63;;
12474;SDS011;6302;42.624;23.334;2024-02-15T01:54:48;9.30;;;8.10;;
12474;SDS011;6302;42.624;23.334;2024-02-15T01:57:17;8.97;;;8.00;;
12474;SDS011;6302;42.624;23.334;2024-02-15T01:59:46;8.10;;;7.30;;
12474;SDS011;6302;42.624;23.334;2024-02-15T02:02:12;11.37;;;8.13;;
12474;SDS011;6302;42.624;23.334;2024-02-15T02:04:43;9.77;;;8.77;;
12474;SDS011;6302;42.624;23.334;2024-02-15T02:07:11;8.67;;;7.20;;
12474;SDS011;6302;42.624;23.334;2024-02-15T02:09:39;8.40;;;7.50;;
12474;SDS011;6302;42.624;23.334;2024-02-15T02:12:06;9.07;;;8.13;;
12474;SDS011;6302;42.624;23.334;2024-02-15T02:14:34;8.03;;;6.90;;
12474;SDS011;6302;42.624;23.334;2024-02-15T02:17:10;8.37;;;7.23;;
12474;SDS011;6302;42.624;23.334;2024-02-15T02:19:38;8.70;;;7.43;;
12474;SDS011;6302;42.624;23.334;2024-02-15T02:22:06;10.33;;;8.20;;
12474;SDS011;6302;42.624;23.334;2024-02-15T02:24:39;10.13;;;8.00;;
12474;SDS011;6302;42.624;23.334;2024-02-15T02:27:14;9.80;;;7.53;;
12474;SDS011;6302;42.624;23.334;2024-02-15T02:29:43;8.93;;;7.90;;
12474;SDS011;6302;42.624;23.334;2024-02-15T02:32:11;10.53;;;7.97;;
12474;SDS011;6302;42.624;23.334;2024-02-15T02:34:38;9.50;;;8.37;;
12474;SDS011;6302;42.624;23.334;2024-02-15T02:37:06;8.13;;;7.33;;
12474;SDS011;6302;42.624;23.334;2024-02-15T02:39:33;8.30;;;6.63;;
12474;SDS011;6302;42.624;23.334;2024-02-15T02:42:00;10.80;;;7.87;;
12474;SDS011;6302;42.624;23.334;2024-02-15T02:44:28;9.70;;;8.03;;
12474;SDS011;6302;42.624;23.334;2024-02-15T02:46:55;9.73;;;8.73;;
12474;SDS011;6302;42.624;23.334;2024-02-15T02:49:22;8.80;;;7.87;;
12474;SDS011;6302;42.624;23.334;2024-02-15T02:51:48;8.40;;;7.53;;
12474;SDS011;6302;42.624;23.334;2024-02-15T02:54:15;8.20;;;7.33;;
12474;SDS011;6302;42.624;23.334;2024-02-15T02:56:42;8.97;;;7.47;;
12474;SDS011;6302;42.624;23.334;2024-02-15T02:59:10;9.67;;;7.93;;
12474;SDS011;6302;42.624;23.334;2024-02-15T03:01:39;9.87;;;8.27;;
12474;SDS011;6302;42.624;23.334;2024-02-15T03:04:06;8.97;;;8.07;;
12474;SDS011;6302;42.624;23.334;2024-02-15T03:06:32;9.30;;;7.80;;
12474;SDS011;6302;42.624;23.334;2024-02-15T03:09:00;10.20;;;8.53;;
12474;SDS011;6302;42.624;23.334;2024-02-15T03:11:32;8.67;;;7.77;;
12474;SDS011;6302;42.624;23.334;2024-02-15T03:13:59;8.87;;;7.87;;
12474;SDS011;6302;42.624;23.334;2024-02-15T03:16:25;8.83;;;7.93;;
12474;SDS011;6302;42.624;23.334;2024-02-15T03:18:54;8.97;;;8.07;;
12474;SDS011;6302;42.624;23.334;2024-02-15T03:21:20;9.87;;;8.10;;
12474;SDS011;6302;42.624;23.334;2024-02-15T03:23:47;11.20;;;9.13;;
12474;SDS011;6302;42.624;23.334;2024-02-15T03:26:14;10.17;;;8.60;;
12474;SDS011;6302;42.624;23.334;2024-02-15T03:28:40;9.73;;;8.23;;
12474;SDS011;6302;42.624;23.334;2024-02-15T03:31:07;10.07;;;8.43;;
12474;SDS011;6302;42.624;23.334;2024-02-15T03:33:34;8.70;;;7.80;;
12474;SDS011;6302;42.624;23.334;2024-02-15T03:36:04;9.43;;;8.23;;
12474;SDS011;6302;42.624;23.334;2024-02-15T03:38:31;11.60;;;8.93;;
12474;SDS011;6302;42.624;23.334;2024-02-15T03:40:58;10.53;;;8.87;;
12474;SDS011;6302;42.624;23.334;2024-02-15T03:43:25;11.40;;;9.03;;
12474;SDS011;6302;42.624;23.334;2024-02-15T03:45:51;10.33;;;9.20;;
12474;SDS011;6302;42.624;23.334;2024-02-15T03:48:18;10.20;;;9.10;;
12474;SDS011;6302;42.624;23.334;2024-02-15T03:50:45;11.73;;;9.60;;
12474;SDS011;6302;42.624;23.334;2024-02-15T03:53:14;12.67;;;8.73;;
12474;SDS011;6302;42.624;23.334;2024-02-15T03:55:41;11.43;;;9.53;;
12474;SDS011;6302;42.624;23.334;2024-02-15T03:58:10;11.17;;;9.97;;
12474;SDS011;6302;42.624;23.334;2024-02-15T04:00:39;9.90;;;8.90;;
12474;SDS011;6302;42.624;23.334;2024-02-15T04:03:06;10.17;;;9.17;;
12474;SDS011;6302;42.624;23.334;2024-02-15T04:05:34;13.60;;;9.40;;
12474;SDS011;6302;42.624;23.334;2024-02-15T04:08:01;10.90;;;9.07;;
12474;SDS011;6302;42.624;23.334;2024-02-15T04:10:32;10.03;;;9.03;;
12474;SDS011;6302;42.624;23.334;2024-02-15T04:12:59;11.37;;;9.13;;
12474;SDS011;6302;42.624;23.334;2024-02-15T04:15:26;12.97;;;9.53;;
12474;SDS011;6302;42.624;23.334;2024-02-15T04:17:52;10.23;;;8.87;;
12474;SDS011;6302;42.624;23.334;2024-02-15T04:20:21;11.20;;;8.43;;
12474;SDS011;6302;42.624;23.334;2024-02-15T04:22:47;9.90;;;8.90;;
12474;SDS011;6302;42.624;23.334;2024-02-15T04:25:15;9.87;;;8.87;;
12474;SDS011;6302;42.624;23.334;2024-02-15T04:27:43;9.83;;;8.70;;
12474;SDS011;6302;42.624;23.334;2024-02-15T04:30:10;11.00;;;8.77;;
12474;SDS011;6302;42.624;23.334;2024-02-15T04:32:37;11.03;;;8.80;;
12474;SDS011;6302;42.624;23.334;2024-02-15T04:35:05;11.27;;;8.97;;
12474;SDS011;6302;42.624;23.334;2024-02-15T04:37:32;9.53;;;8.43;;
12474;SDS011;6302;42.624;23.334;2024-02-15T04:39:59;10.23;;;8.60;;
12474;SDS011;6302;42.624;23.334;2024-02-15T04:42:33;10.63;;;8.33;;
12474;SDS011;6302;42.624;23.334;2024-02-15T04:45:03;12.40;;;8.87;;
12474;SDS011;6302;42.624;23.334;2024-02-15T04:47:35;11.57;;;9.30;;
12474;SDS011;6302;42.624;23.334;2024-02-15T04:50:01;11.03;;;8.73;;
12474;SDS011;6302;42.624;23.334;2024-02-15T04:52:30;12.07;;;8.97;;
12474;SDS011;6302;42.624;23.334;2024-02-15T04:54:57;7.97;;;7.17;;
12474;SDS011;6302;42.624;23.334;2024-02-15T04:57:24;11.83;;;9.27;;
12474;SDS011;6302;42.624;23.334;2024-02-15T04:59:53;11.37;;;8.13;;
12474;SDS011;6302;42.624;23.334;2024-02-15T05:02:21;11.03;;;9.27;;
12474;SDS011;6302;42.624;23.334;2024-02-15T05:04:49;11.87;;;8.67;;
12474;SDS011;6302;42.624;23.334;2024-02-15T05:07:20;11.57;;;8.40;;
12474;SDS011;6302;42.624;23.334;2024-02-15T05:09:47;11.87;;;9.47;;
12474;SDS011;6302;42.624;23.334;2024-02-15T05:12:21;13.17;;;9.30;;
12474;SDS011;6302;42.624;23.334;2024-02-15T05:14:48;10.67;;;9.00;;
12474;SDS011;6302;42.624;23.334;2024-02-15T05:17:15;11.77;;;8.70;;
12474;SDS011;6302;42.624;23.334;2024-02-15T05:19:43;10.27;;;9.13;;
12474;SDS011;6302;42.624;23.334;2024-02-15T05:22:11;9.40;;;8.40;;
12474;SDS011;6302;42.624;23.334;2024-02-15T05:24:38;10.50;;;9.07;;
12474;SDS011;6302;42.624;23.334;2024-02-15T05:27:05;11.37;;;8.00;;
12474;SDS011;6302;42.624;23.334;2024-02-15T05:29:32;11.20;;;8.47;;
12474;SDS011;6302;42.624;23.334;2024-02-15T05:31:59;10.90;;;8.10;;
12474;SDS011;6302;42.624;23.334;2024-02-15T05:34:26;11.17;;;7.33;;
12474;SDS011;6302;42.624;23.334;2024-02-15T05:36:55;10.23;;;8.37;;
12474;SDS011;6302;42.624;23.334;2024-02-15T05:39:22;9.83;;;8.00;;
12474;SDS011;6302;42.624;23.334;2024-02-15T05:41:50;11.27;;;7.97;;
12474;SDS011;6302;42.624;23.334;2024-02-15T05:44:17;11.07;;;8.43;;
12474;SDS011;6302;42.624;23.334;2024-02-15T05:46:45;10.60;;;8.30;;
12474;SDS011;6302;42.624;23.334;2024-02-15T05:49:12;11.73;;;7.70;;
12474;SDS011;6302;42.624;23.334;2024-02-15T05:51:42;13.60;;;8.77;;
12474;SDS011;6302;42.624;23.334;2024-02-15T05:54:11;10.70;;;8.23;;
12474;SDS011;6302;42.624;23.334;2024-02-15T05:56:38;10.03;;;8.27;;
12474;SDS011;6302;42.624;23.334;2024-02-15T05:59:04;9.97;;;8.43;;
12474;SDS011;6302;42.624;23.334;2024-02-15T06:01:35;11.30;;;8.27;;
12474;SDS011;6302;42.624;23.334;2024-02-15T06:04:02;10.90;;;8.67;;
12474;SDS011;6302;42.624;23.334;2024-02-15T06:06:33;15.00;;;8.97;;
12474;SDS011;6302;42.624;23.334;2024-02-15T06:09:00;9.87;;;8.63;;
12474;SDS011;6302;42.624;23.334;2024-02-15T06:11:29;9.73;;;8.17;;
12474;SDS011;6302;42.624;23.334;2024-02-15T06:13:56;10.10;;;7.73;;
12474;SDS011;6302;42.624;23.334;2024-02-15T06:16:22;9.30;;;7.70;;
12474;SDS011;6302;42.624;23.334;2024-02-15T06:18:49;9.23;;;8.10;;
12474;SDS011;6302;42.624;23.334;2024-02-15T06:21:16;11.43;;;7.30;;
12474;SDS011;6302;42.624;23.334;2024-02-15T06:23:43;10.97;;;7.47;;
12474;SDS011;6302;42.624;23.334;2024-02-15T06:26:10;9.77;;;8.27;;
12474;SDS011;6302;42.624;23.334;2024-02-15T06:28:38;11.80;;;8.10;;
12474;SDS011;6302;42.624;23.334;2024-02-15T06:31:22;8.70;;;7.70;;
12474;SDS011;6302;42.624;23.334;2024-02-15T06:34:06;10.50;;;7.70;;
12474;SDS011;6302;42.624;23.334;2024-02-15T06:36:51;9.33;;;8.07;;
12474;SDS011;6302;42.624;23.334;2024-02-15T06:39:37;11.23;;;7.23;;
12474;SDS011;6302;42.624;23.334;2024-02-15T06:42:11;9.67;;;8.27;;
12474;SDS011;6302;42.624;23.334;2024-02-15T06:44:42;8.93;;;7.60;;
12474;SDS011;6302;42.624;23.334;2024-02-15T06:47:09;12.23;;;8.60;;
12474;SDS011;6302;42.624;23.334;2024-02-15T06:49:37;12.07;;;8.70;;
12474;SDS011;6302;42.624;23.334;2024-02-15T06:52:05;10.30;;;8.23;;
12474;SDS011;6302;42.624;23.334;2024-02-15T06:54:33;10.60;;;8.23;;
12474;SDS011;6302;42.624;23.334;2024-02-15T06:57:00;9.23;;;7.50;;
12474;SDS011;6302;42.624;23.334;2024-02-15T06:59:27;9.20;;;7.80;;
12474;SDS011;6302;42.624;23.334;2024-02-15T07:01:55;9.10;;;7.53;;
12474;SDS011;6302;42.624;23.334;2024-02-15T07:04:23;10.70;;;8.23;;
12474;SDS011;6302;42.624;23.334;2024-02-15T07:06:50;8.97;;;8.07;;
12474;SDS011;6302;42.624;23.334;2024-02-15T07:09:19;8.33;;;7.50;;
12474;SDS011;6302;42.624;23.334;2024-02-15T07:11:48;9.27;;;7.73;;
12474;SDS011;6302;42.624;23.334;2024-02-15T07:14:15;11.03;;;7.97;;
12474;SDS011;6302;42.624;23.334;2024-02-15T07:16:43;10.33;;;8.53;;
12474;SDS011;6302;42.624;23.334;2024-02-15T07:19:12;8.87;;;7.13;;
12474;SDS011;6302;42.624;23.334;2024-02-15T07:21:39;9.67;;;7.80;;
12474;SDS011;6302;42.624;23.334;2024-02-15T07:24:06;9.23;;;7.90;;
12474;SDS011;6302;42.624;23.334;2024-02-15T07:26:33;9.73;;;7.03;;
12474;SDS011;6302;42.624;23.334;2024-02-15T07:29:01;10.37;;;8.13;;
12474;SDS011;6302;42.624;23.334;2024-02-15T07:31:31;10.03;;;7.13;;
12474;SDS011;6302;42.624;23.334;2024-02-15T07:33:59;8.80;;;7.90;;
12474;SDS011;6302;42.624;23.334;2024-02-15T07:36:27;8.73;;;7.70;;
12474;SDS011;6302;42.624;23.334;2024-02-15T07:38:54;11.60;;;7.20;;
12474;SDS011;6302;42.624;23.334;2024-02-15T07:41:25;7.90;;;6.93;;
12474;SDS011;6302;42.624;23.334;2024-02-15T07:43:53;9.20;;;7.23;;
12474;SDS011;6302;42.624;23.334;2024-02-15T07:46:20;10.00;;;7.20;;
12474;SDS011;6302;42.624;23.334;2024-02-15T07:48:49;9.00;;;7.27;;
12474;SDS011;6302;42.624;23.334;2024-02-15T07:51:16;9.90;;;7.20;;
12474;SDS011;6302;42.624;23.334;2024-02-15T07:53:46;10.20;;;7.67;;
12474;SDS011;6302;42.624;23.334;2024-02-15T07:56:14;10.73;;;7.07;;
12474;SDS011;6302;42.624;23.334;2024-02-15T07:58:41;8.57;;;6.67;;
12474;SDS011;6302;42.624;23.334;2024-02-15T08:01:11;7.60;;;6.60;;
12474;SDS011;6302;42.624;23.334;2024-02-15T08:03:38;7.90;;;7.00;;
12474;SDS011;6302;42.624;23.334;2024-02-15T08:06:09;9.30;;;7.73;;
12474;SDS011;6302;42.624;23.334;2024-02-15T08:08:37;9.43;;;8.53;;
12474;SDS011;6302;42.624;23.334;2024-02-15T08:11:07;8.27;;;6.90;;
12474;SDS011;6302;42.624;23.334;2024-02-15T08:13:40;8.50;;;7.60;;
12474;SDS011;6302;42.624;23.334;2024-02-15T08:16:07;8.00;;;7.10;;
12474;SDS011;6302;42.624;23.334;2024-02-15T08:18:34;8.10;;;7.30;;
12474;SDS011;6302;42.624;23.334;2024-02-15T08:21:01;10.40;;;7.40;;
12474;SDS011;6302;42.624;23.334;2024-02-15T08:23:29;8.43;;;7.63;;
12474;SDS011;6302;42.624;23.334;2024-02-15T08:25:57;8.60;;;7.70;;
12474;SDS011;6302;42.624;23.334;2024-02-15T08:28:25;9.93;;;7.37;;
12474;SDS011;6302;42.624;23.334;2024-02-15T08:30:53;9.10;;;7.77;;
12474;SDS011;6302;42.624;23.334;2024-02-15T08:33:22;7.87;;;6.90;;
12474;SDS011;6302;42.624;23.334;2024-02-15T08:35:49;10.83;;;8.23;;
12474;SDS011;6302;42.624;23.334;2024-02-15T08:38:18;9.73;;;7.60;;
12474;SDS011;6302;42.624;23.334;2024-02-15T08:40:45;8.77;;;7.30;;
12474;SDS011;6302;42.624;23.334;2024-02-15T08:43:12;11.53;;;8.70;;
12474;SDS011;6302;42.624;23.334;2024-02-15T08:45:42;10.20;;;8.00;;
12474;SDS011;6302;42.624;23.334;2024-02-15T08:48:08;9.20;;;7.27;;
12474;SDS011;6302;42.624;23.334;2024-02-15T08:50:35;9.27;;;8.17;;
12474;SDS011;6302;42.624;23.334;2024-02-15T09:03:50;11.50;;;8.07;;
12474;SDS011;6302;42.624;23.334;2024-02-15T09:06:17;9.10;;;7.77;;
12474;SDS011;6302;42.624;23.334;2024-02-15T09:08:44;9.20;;;8.13;;
12474;SDS011;6302;42.624;23.334;2024-02-15T09:11:13;9.50;;;8.50;;
12474;SDS011;6302;42.624;23.334;2024-02-15T09:13:39;12.33;;;8.13;;
12474;SDS011;6302;42.624;23.334;2024-02-15T09:16:06;12.20;;;9.03;;
12474;SDS011;6302;42.624;23.334;2024-02-15T09:18:33;10.57;;;8.73;;
12474;SDS011;6302;42.624;23.334;2024-02-15T09:21:01;9.50;;;8.60;;
12474;SDS011;6302;42.624;23.334;2024-02-15T09:23:30;11.50;;;7.80;;
12474;SDS011;6302;42.624;23.334;2024-02-15T09:25:56;10.57;;;8.37;;
12474;SDS011;6302;42.624;23.334;2024-02-15T09:28:24;10.17;;;8.33;;
12474;SDS011;6302;42.624;23.334;2024-02-15T09:30:51;9.50;;;8.60;;
12474;SDS011;6302;42.624;23.334;2024-02-15T09:33:18;10.57;;;8.00;;
12474;SDS011;6302;42.624;23.334;2024-02-15T09:35:46;9.00;;;7.63;;
12474;SDS011;6302;42.624;23.334;2024-02-15T09:38:14;9.20;;;8.07;;
12474;SDS011;6302;42.624;23.334;2024-02-15T09:40:42;10.90;;;8.73;;
12474;SDS011;6302;42.624;23.334;2024-02-15T09:43:09;10.93;;;8.03;;
12474;SDS011;6302;42.624;23.334;2024-02-15T09:45:38;10.37;;;8.13;;
12474;SDS011;6302;42.624;23.334;2024-02-15T09:48:05;11.73;;;8.23;;
12474;SDS011;6302;42.624;23.334;2024-02-15T09:50:34;10.50;;;8.00;;
12474;SDS011;6302;42.624;23.334;2024-02-15T09:53:01;9.37;;;8.13;;
12474;SDS011;6302;42.624;23.334;2024-02-15T09:55:32;9.07;;;8.00;;
12474;SDS011;6302;42.624;23.334;2024-02-15T09:58:00;10.67;;;8.40;;
12474;SDS011;6302;42.624;23.334;2024-02-15T10:00:29;10.63;;;8.37;;
12474;SDS011;6302;42.624;23.334;2024-02-15T10:02:56;11.87;;;8.30;;
12474;SDS011;6302;42.624;23.334;2024-02-15T10:05:41;9.53;;;7.77;;
12474;SDS011;6302;42.624;23.334;2024-02-15T10:08:14;9.63;;;8.53;;
12474;SDS011;6302;42.624;23.334;2024-02-15T10:10:44;10.07;;;9.10;;
12474;SDS011;6302;42.624;23.334;2024-02-15T10:13:12;12.43;;;7.90;;
12474;SDS011;6302;42.624;23.334;2024-02-15T10:15:40;9.03;;;8.00;;
12474;SDS011;6302;42.624;23.334;2024-02-15T10:18:07;9.23;;;8.33;;
12474;SDS011;6302;42.624;23.334;2024-02-15T10:20:36;13.70;;;8.03;;
12474;SDS011;6302;42.624;23.334;2024-02-15T10:23:13;10.73;;;8.73;;
12474;SDS011;6302;42.624;23.334;2024-02-15T10:25:44;11.77;;;8.47;;
12474;SDS011;6302;42.624;23.334;2024-02-15T10:28:11;10.87;;;7.77;;
12474;SDS011;6302;42.624;23.334;2024-02-15T10:30:41;10.50;;;7.80;;
12474;SDS011;6302;42.624;23.334;2024-02-15T10:33:10;8.93;;;7.53;;
12474;SDS011;6302;42.624;23.334;2024-02-15T10:35:45;8.83;;;7.77;;
12474;SDS011;6302;42.624;23.334;2024-02-15T10:38:12;10.20;;;7.63;;
12474;SDS011;6302;42.624;23.334;2024-02-15T10:40:40;12.00;;;8.73;;
12474;SDS011;6302;42.624;23.334;2024-02-15T10:43:09;9.57;;;8.17;;
12474;SDS011;6302;42.624;23.334;2024-02-15T10:45:38;10.23;;;9.23;;
12474;SDS011;6302;42.624;23.334;2024-02-15T10:48:07;8.53;;;7.63;;
12474;SDS011;6302;42.624;23.334;2024-02-15T10:50:35;10.40;;;9.07;;
12474;SDS011;6302;42.624;23.334;2024-02-15T10:53:07;11.03;;;8.23;;
12474;SDS011;6302;42.624;23.334;2024-02-15T10:55:44;10.40;;;8.27;;
12474;SDS011;6302;42.624;23.334;2024-02-15T10:58:19;8.67;;;7.77;;
12474;SDS011;6302;42.624;23.334;2024-02-15T11:00:46;9.37;;;7.77;;
12474;SDS011;6302;42.624;23.334;2024-02-15T11:03:17;11.70;;;8.93;;
12474;SDS011;6302;42.624;23.334;2024-02-15T11:05:50;10.23;;;8.20;;
12474;SDS011;6302;42.624;23.334;2024-02-15T11:08:18;8.37;;;7.53;;
12474;SDS011;6302;42.624;23.334;2024-02-15T11:10:45;10.77;;;8.40;;
12474;SDS011;6302;42.624;23.334;2024-02-15T11:13:13;9.67;;;8.60;;
12474;SDS011;6302;42.624;23.334;2024-02-15T11:15:41;10.37;;;8.57;;
12474;SDS011;6302;42.624;23.334;2024-02-15T11:18:22;8.20;;;7.40;;
12474;SDS011;6302;42.624;23.334;2024-02-15T11:21:09;8.13;;;7.23;;
12474;SDS011;6302;42.624;23.334;2024-02-15T11:23:36;7.70;;;6.90;;
12474;SDS011;6302;42.624;23.334;2024-02-15T11:26:08;8.87;;;7.23;;
12474;SDS011;6302;42.624;23.334;2024-02-15T11:28:38;8.87;;;7.13;;
12474;SDS011;6302;42.624;23.334;2024-02-15T11:31:08;7.80;;;7.03;;
12474;SDS011;6302;42.624;23.334;2024-02-15T11:33:37;8.83;;;7.60;;
12474;SDS011;6302;42.624;23.334;2024-02-15T11:36:05;7.80;;;7.00;;
12474;SDS011;6302;42.624;23.334;2024-02-15T11:38:32;8.03;;;6.43;;
12474;SDS011;6302;42.624;23.334;2024-02-15T11:41:00;7.57;;;6.63;;
12474;SDS011;6302;42.624;23.334;2024-02-15T11:46:24;7.00;;;6.40;;
12474;SDS011;6302;42.624;23.334;2024-02-15T11:48:55;8.33;;;6.93;;
12474;SDS011;6302;42.624;23.334;2024-02-15T11:51:27;7.43;;;5.80;;
12474;SDS011;6302;42.624;23.334;2024-02-15T11:56:52;7.10;;;6.33;;
12474;SDS011;6302;42.624;23.334;2024-02-15T11:59:39;10.67;;;6.10;;
12474;SDS011;6302;42.624;23.334;2024-02-15T12:02:20;7.33;;;6.20;;
12474;SDS011;6302;42.624;23.334;2024-02-15T12:05:04;6.43;;;5.83;;
12474;SDS011;6302;42.624;23.334;2024-02-15T12:07:49;7.03;;;5.87;;
12474;SDS011;6302;42.624;23.334;2024-02-15T12:10:33;6.90;;;6.20;;
12474;SDS011;6302;42.624;23.334;2024-02-15T12:13:17;8.53;;;6.17;;
12474;SDS011;6302;42.624;23.334;2024-02-15T12:16:15;8.20;;;5.50;;
12474;SDS011;6302;42.624;23.334;2024-02-15T12:19:01;7.27;;;5.50;;
12474;SDS011;6302;42.624;23.334;2024-02-15T12:21:28;6.80;;;5.90;;
12474;SDS011;6302;42.624;23.334;2024-02-15T12:23:55;7.67;;;5.57;;
12474;SDS011;6302;42.624;23.334;2024-02-15T12:26:22;6.50;;;5.90;;
12474;SDS011;6302;42.624;23.334;2024-02-15T12:28:50;6.07;;;5.23;;
12474;SDS011;6302;42.624;23.334;2024-02-15T12:31:19;5.73;;;5.20;;
12474;SDS011;6302;42.624;23.334;2024-02-15T12:33:47;5.90;;;5.30;;
12474;SDS011;6302;42.624;23.334;2024-02-15T12:36:27;6.63;;;5.43;;
12474;SDS011;6302;42.624;23.334;2024-02-15T12:39:01;6.37;;;5.77;;
12474;SDS011;6302;42.624;23.334;2024-02-15T12:41:35;8.27;;;5.23;;
12474;SDS011;6302;42.624;23.334;2024-02-15T12:44:02;5.33;;;4.83;;
12474;SDS011;6302;42.624;23.334;2024-02-15T12:46:29;7.00;;;5.50;;
12474;SDS011;6302;42.624;23.334;2024-02-15T12:49:09;8.17;;;5.70;;
12474;SDS011;6302;42.624;23.334;2024-02-15T12:51:40;6.70;;;5.60;;
12474;SDS011;6302;42.624;23.334;2024-02-15T12:54:15;7.17;;;5.90;;
12474;SDS011;6302;42.624;23.334;2024-02-15T12:56:46;5.93;;;5.03;;
12474;SDS011;6302;42.624;23.334;2024-02-15T12:59:13;6.47;;;5.87;;
12474;SDS011;6302;42.624;23.334;2024-02-15T13:01:41;6.93;;;5.83;;
12474;SDS011;6302;42.624;23.334;2024-02-15T13:04:08;6.80;;;5.50;;
12474;SDS011;6302;42.624;23.334;2024-02-15T13:06:35;6.20;;;5.60;;
12474;SDS011;6302;42.624;23.334;2024-02-15T13:09:04;6.67;;;6.07;;
12474;SDS011;6302;42.624;23.334;2024-02-15T13:11:32;6.20;;;5.60;;
12474;SDS011;6302;42.624;23.334;2024-02-15T13:13:59;6.87;;;6.17;;
12474;SDS011;6302;42.624;23.334;2024-02-15T13:16:26;10.77;;;5.93;;
12474;SDS011;6302;42.624;23.334;2024-02-15T13:18:56;6.60;;;5.47;;
12474;SDS011;6302;42.624;23.334;2024-02-15T13:21:24;6.37;;;5.77;;
12474;SDS011;6302;42.624;23.334;2024-02-15T13:23:55;6.23;;;5.63;;
12474;SDS011;6302;42.624;23.334;2024-02-15T13:26:23;6.77;;;6.07;;
12474;SDS011;6302;42.624;23.334;2024-02-15T13:28:51;6.87;;;6.17;;
12474;SDS011;6302;42.624;23.334;2024-02-15T13:31:18;6.70;;;6.10;;
12474;SDS011;6302;42.624;23.334;2024-02-15T13:33:46;7.17;;;6.00;;
12474;SDS011;6302;42.624;23.334;2024-02-15T13:36:13;6.87;;;5.90;;
12474;SDS011;6302;42.624;23.334;2024-02-15T13:38:40;10.33;;;6.10;;
12474;SDS011;6302;42.624;23.334;2024-02-15T13:41:07;7.03;;;6.33;;
12474;SDS011;6302;42.624;23.334;2024-02-15T13:43:35;7.47;;;6.57;;
12474;SDS011;6302;42.624;23.334;2024-02-15T13:46:04;8.87;;;6.10;;
12474;SDS011;6302;42.624;23.334;2024-02-15T13:48:31;7.40;;;6.47;;
12474;SDS011;6302;42.624;23.334;2024-02-15T13:50:57;6.07;;;5.53;;
12474;SDS011;6302;42.624;23.334;2024-02-15T13:53:24;7.07;;;5.60;;
12474;SDS011;6302;42.624;23.334;2024-02-15T13:55:53;6.50;;;5.80;;
12474;SDS011;6302;42.624;23.334;2024-02-15T13:58:20;6.23;;;5.63;;
12474;SDS011;6302;42.624;23.334;2024-02-15T14:00:48;6.20;;;5.60;;
12474;SDS011;6302;42.624;23.334;2024-02-15T14:03:15;6.03;;;5.43;;
12474;SDS011;6302;42.624;23.334;2024-02-15T14:05:43;6.00;;;5.40;;
12474;SDS011;6302;42.624;23.334;2024-02-15T14:08:11;5.40;;;4.87;;
12474;SDS011;6302;42.624;23.334;2024-02-15T14:10:38;6.47;;;5.50;;
12474;SDS011;6302;42.624;23.334;2024-02-15T14:13:05;7.37;;;5.53;;
12474;SDS011;6302;42.624;23.334;2024-02-15T14:15:33;8.73;;;5.93;;
12474;SDS011;6302;42.624;23.334;2024-02-15T14:18:04;6.60;;;5.50;;
12474;SDS011;6302;42.624;23.334;2024-02-15T14:20:31;6.83;;;5.97;;
12474;SDS011;6302;42.624;23.334;2024-02-15T14:22:57;5.93;;;5.33;;
12474;SDS011;6302;42.624;23.334;2024-02-15T14:25:30;5.90;;;5.27;;
12474;SDS011;6302;42.624;23.334;2024-02-15T14:27:57;6.10;;;4.80;;
12474;SDS011;6302;42.624;23.334;2024-02-15T14:30:24;8.53;;;6.30;;
12474;SDS011;6302;42.624;23.334;2024-02-15T14:33:12;6.83;;;5.73;;
12474;SDS011;6302;42.624;23.334;2024-02-15T14:35:40;6.87;;;5.63;;
12474;SDS011;6302;42.624;23.334;2024-02-15T14:38:08;6.17;;;5.57;;
12474;SDS011;6302;42.624;23.334;2024-02-15T14:40:36;5.97;;;5.47;;
12474;SDS011;6302;42.624;23.334;2024-02-15T14:43:04;6.23;;;5.63;;
12474;SDS011;6302;42.624;23.334;2024-02-15T14:45:31;9.23;;;5.73;;
12474;SDS011;6302;42.624;23.334;2024-02-15T14:47:58;8.17;;;5.37;;
12474;SDS011;6302;42.624;23.334;2024-02-15T14:50:26;11.00;;;6.10;;
12474;SDS011;6302;42.624;23.334;2024-02-15T14:52:53;7.00;;;5.87;;
12474;SDS011;6302;42.624;23.334;2024-02-15T14:55:20;8.17;;;6.20;;
12474;SDS011;6302;42.624;23.334;2024-02-15T14:57:47;6.60;;;5.93;;
12474;SDS011;6302;42.624;23.334;2024-02-15T15:00:14;7.17;;;5.47;;
12474;SDS011;6302;42.624;23.334;2024-02-15T15:02:43;9.47;;;5.60;;
12474;SDS011;6302;42.624;23.334;2024-02-15T15:05:11;7.23;;;6.20;;
12474;SDS011;6302;42.624;23.334;2024-02-15T15:07:57;6.13;;;5.43;;
12474;SDS011;6302;42.624;23.334;2024-02-15T15:10:41;8.57;;;6.77;;